createdAt,value
2018-06-17T00:02:16.621Z,95.38
2018-06-17T00:05:20.380Z,95.77
2018-06-17T00:08:24.085Z,96.30
2018-06-17T00:11:27.755Z,96.95
2018-06-17T00:14:31.387Z,97.10
2018-06-17T00:17:35.013Z,97.22
2018-06-17T00:20:38.570Z,97.29
2018-06-17T00:23:42.237Z,97.37
2018-06-17T00:26:45.855Z,97.53
2018-06-17T00:29:49.451Z,97.45
2018-06-17T00:32:53.057Z,97.42
2018-06-17T00:35:56.731Z,97.46
2018-06-17T00:39:00.472Z,97.20
2018-06-17T00:42:04.099Z,97.24
2018-06-17T00:45:07.742Z,97.41
2018-06-17T00:48:11.395Z,97.03
2018-06-17T00:51:15.610Z,96.83
2018-06-17T00:54:19.222Z,96.42
2018-06-17T00:57:33.977Z,95.54
2018-06-17T01:00:37.666Z,95.51
2018-06-17T01:03:41.226Z,95.54
2018-06-17T01:06:44.907Z,94.95
2018-06-17T01:09:48.442Z,95.31
2018-06-17T01:12:52.072Z,95.69
2018-06-17T01:15:55.737Z,95.94
2018-06-17T01:18:59.420Z,95.94
2018-06-17T01:22:03.309Z,96.27
2018-06-17T01:25:07.210Z,96.50
2018-06-17T01:28:10.857Z,96.41
2018-06-17T01:31:14.543Z,96.36
2018-06-17T01:34:18.192Z,96.12
2018-06-17T01:37:21.997Z,96.30
2018-06-17T01:40:25.683Z,96.11
2018-06-17T01:43:29.685Z,95.77
2018-06-17T01:46:33.407Z,95.83
2018-06-17T01:49:37.033Z,95.78
2018-06-17T01:52:40.583Z,95.67
2018-06-17T01:55:44.211Z,95.97
2018-06-17T01:58:47.836Z,96.43
2018-06-17T02:01:51.497Z,97.28
2018-06-17T02:05:00.436Z,97.61
2018-06-17T02:08:09.436Z,97.47
2018-06-17T02:11:18.456Z,97.63
2018-06-17T02:15:25.816Z,97.72
2018-06-17T02:18:29.442Z,98.19
2018-06-17T02:21:33.036Z,98.27
2018-06-17T02:24:36.943Z,98.31
2018-06-17T02:27:40.573Z,98.33
2018-06-17T02:30:44.266Z,98.16
2018-06-17T02:33:47.874Z,98.05
2018-06-17T02:36:51.526Z,98.15
2018-06-17T02:39:55.299Z,98.24
2018-06-17T02:42:58.882Z,98.39
2018-06-17T02:46:07.721Z,98.41
2018-06-17T02:49:16.796Z,98.24
2018-06-17T02:52:25.730Z,98.22
2018-06-17T02:55:29.329Z,98.28
2018-06-17T02:58:32.948Z,98.27
2018-06-17T03:01:36.567Z,98.26
2018-06-17T03:04:40.200Z,98.22
2018-06-17T03:07:43.870Z,98.22
2018-06-17T03:10:47.597Z,98.24
2018-06-17T03:13:51.199Z,98.28
2018-06-17T03:16:54.935Z,98.39
2018-06-17T03:19:58.572Z,98.40
2018-06-17T03:23:02.274Z,98.31
2018-06-17T03:26:11.285Z,97.96
2018-06-17T03:29:20.063Z,97.71
2018-06-17T03:32:28.832Z,97.85
2018-06-17T03:35:37.737Z,97.61
2018-06-17T03:38:42.244Z,97.27
2018-06-17T03:41:45.918Z,97.32
2018-06-17T03:44:49.549Z,97.02
2018-06-17T03:47:53.217Z,96.60
2018-06-17T03:50:57.137Z,96.45
2018-06-17T03:54:00.779Z,95.20
2018-06-17T03:57:04.518Z,94.91
2018-06-17T04:00:08.193Z,94.59
2018-06-17T04:03:11.828Z,92.55
2018-06-17T04:06:15.465Z,91.97
2018-06-17T04:09:19.087Z,90.23
2018-06-17T04:12:22.689Z,87.28
2018-06-17T04:15:26.332Z,84.44
2018-06-17T04:18:30.067Z,82.13
2018-06-17T04:21:33.657Z,79.85
2018-06-17T04:24:37.538Z,76.71
2018-06-17T04:27:41.127Z,76.51
2018-06-17T04:30:44.725Z,76.00
2018-06-17T04:33:48.358Z,76.74
2018-06-17T04:36:52.195Z,72.79
2018-06-17T04:39:55.833Z,71.27
2018-06-17T04:42:59.489Z,72.98
2018-06-17T04:46:03.060Z,70.29
2018-06-17T04:49:06.655Z,72.14
2018-06-17T04:52:10.244Z,68.54
2018-06-17T04:55:13.902Z,69.99
2018-06-17T04:58:17.539Z,64.96
2018-06-17T05:01:22.017Z,65.25
2018-06-17T05:04:25.603Z,70.92
2018-06-17T05:07:29.269Z,75.36
2018-06-17T05:10:32.968Z,78.41
2018-06-17T05:13:36.563Z,77.74
2018-06-17T05:16:40.201Z,74.84
2018-06-17T05:19:43.823Z,68.76
2018-06-17T05:22:47.427Z,64.06
2018-06-17T05:25:52.029Z,65.94
2018-06-17T05:28:55.661Z,61.09
2018-06-17T05:31:59.350Z,60.36
2018-06-17T05:35:03.530Z,61.10
2018-06-17T05:38:07.131Z,65.03
2018-06-17T05:41:10.702Z,67.09
2018-06-17T05:44:14.346Z,62.86
2018-06-17T05:47:18.000Z,60.36
2018-06-17T05:50:21.754Z,58.39
2018-06-17T05:53:25.360Z,55.35
2018-06-17T05:56:28.959Z,56.91
2018-06-17T05:59:32.570Z,55.55
2018-06-17T06:02:36.145Z,56.73
2018-06-17T06:05:39.706Z,55.15
2018-06-17T06:08:43.286Z,57.46
2018-06-17T06:11:46.871Z,55.51
2018-06-17T06:14:50.486Z,55.48
2018-06-17T06:17:54.126Z,54.20
2018-06-17T06:20:57.782Z,54.92
2018-06-17T06:24:01.754Z,49.84
2018-06-17T06:27:05.373Z,53.19
2018-06-17T06:30:09.044Z,48.65
2018-06-17T06:33:12.762Z,46.89
2018-06-17T06:36:16.399Z,48.43
2018-06-17T06:39:20.056Z,50.03
2018-06-17T06:42:23.725Z,51.00
2018-06-17T06:45:27.393Z,49.61
2018-06-17T06:48:31.018Z,52.88
2018-06-17T06:51:35.047Z,51.11
2018-06-17T06:54:38.801Z,52.38
2018-06-17T06:57:42.391Z,50.38
2018-06-17T07:00:46.061Z,50.29
2018-06-17T07:04:00.799Z,52.02
2018-06-17T07:07:15.427Z,56.70
2018-06-17T07:10:28.514Z,57.98
2018-06-17T07:13:32.174Z,60.59
2018-06-17T07:16:46.931Z,59.53
2018-06-17T07:19:50.488Z,59.78
2018-06-17T07:22:54.166Z,63.52
2018-06-17T07:26:49.520Z,62.20
2018-06-17T07:29:53.184Z,62.81
2018-06-17T07:32:56.856Z,60.43
2018-06-17T07:36:00.546Z,61.21
2018-06-17T07:39:53.185Z,62.50
2018-06-17T07:42:56.806Z,60.60
2018-06-17T07:46:00.426Z,62.96
2018-06-17T07:49:48.691Z,60.42
2018-06-17T07:53:03.493Z,60.56
2018-06-17T07:56:07.151Z,60.26
2018-06-17T07:59:10.852Z,59.53
2018-06-17T08:02:15.001Z,61.72
2018-06-17T08:05:18.832Z,60.42
2018-06-17T08:08:22.527Z,62.91
2018-06-17T08:11:26.111Z,60.39
2018-06-17T08:14:29.716Z,58.98
2018-06-17T08:17:33.391Z,60.10
2018-06-17T08:20:36.912Z,60.70
2018-06-17T08:23:40.645Z,59.96
2018-06-17T08:26:44.356Z,60.97
2018-06-17T08:29:47.971Z,57.11
2018-06-17T08:32:51.558Z,57.64
2018-06-17T08:35:55.501Z,60.16
2018-06-17T08:38:59.205Z,57.95
2018-06-17T08:42:02.872Z,59.75
2018-06-17T08:45:06.537Z,59.47
2018-06-17T08:48:10.107Z,58.11
2018-06-17T08:51:13.957Z,57.76
2018-06-17T08:54:17.760Z,59.04
2018-06-17T08:57:21.384Z,59.38
2018-06-17T09:00:25.002Z,59.95
2018-06-17T09:03:28.706Z,58.98
2018-06-17T09:06:32.317Z,58.31
2018-06-17T09:09:36.012Z,61.84
2018-06-17T09:12:39.702Z,60.10
2018-06-17T09:15:43.398Z,59.11
2018-06-17T09:18:47.097Z,57.79
2018-06-17T09:21:50.824Z,59.33
2018-06-17T09:24:54.789Z,59.56
2018-06-17T09:27:58.451Z,56.81
2018-06-17T09:31:02.078Z,57.88
2018-06-17T09:34:05.973Z,58.72
2018-06-17T09:37:09.739Z,56.37
2018-06-17T09:40:13.323Z,56.74
2018-06-17T09:43:16.993Z,57.53
2018-06-17T09:46:20.733Z,56.84
2018-06-17T09:49:24.392Z,57.40
2018-06-17T09:52:27.977Z,56.85
2018-06-17T09:55:31.751Z,57.79
2018-06-17T09:58:35.380Z,55.60
2018-06-17T10:01:39.037Z,54.26
2018-06-17T10:04:42.688Z,55.95
2018-06-17T10:07:46.395Z,53.38
2018-06-17T10:10:55.658Z,54.93
2018-06-17T10:13:59.303Z,53.88
2018-06-17T10:17:03.567Z,53.66
2018-06-17T10:20:07.190Z,53.29
2018-06-17T10:23:12.214Z,53.04
2018-06-17T10:26:15.868Z,52.63
2018-06-17T10:29:19.543Z,52.11
2018-06-17T10:32:23.355Z,53.43
2018-06-17T10:35:27.113Z,53.57
2018-06-17T10:38:30.866Z,54.25
2018-06-17T10:41:34.464Z,54.44
2018-06-17T10:44:38.152Z,54.89
2018-06-17T10:47:41.953Z,54.79
2018-06-17T10:50:45.718Z,51.80
2018-06-17T10:53:49.342Z,52.96
2018-06-17T10:56:52.962Z,53.31
2018-06-17T10:59:56.723Z,53.33
2018-06-17T11:03:00.681Z,52.86
2018-06-17T11:06:04.527Z,53.99
2018-06-17T11:09:09.052Z,53.47
2018-06-17T11:12:12.869Z,54.52
2018-06-17T11:15:16.562Z,54.36
2018-06-17T11:18:20.182Z,53.17
2018-06-17T11:21:23.863Z,53.83
2018-06-17T11:24:27.636Z,53.10
2018-06-17T11:27:31.263Z,54.31
2018-06-17T11:30:35.019Z,52.47
2018-06-17T11:33:38.660Z,52.38
2018-06-17T11:36:42.396Z,54.35
2018-06-17T11:39:46.589Z,52.33
2018-06-17T11:42:50.248Z,51.66
2018-06-17T11:45:53.863Z,51.98
2018-06-17T11:48:57.469Z,53.52
2018-06-17T11:52:01.163Z,52.16
2018-06-17T11:55:04.964Z,52.16
2018-06-17T11:58:08.658Z,51.26
2018-06-17T12:01:12.668Z,51.16
2018-06-17T12:04:16.450Z,50.93
2018-06-17T12:07:20.069Z,52.83
2018-06-17T12:10:23.838Z,52.03
2018-06-17T12:13:27.513Z,53.47
2018-06-17T12:16:31.401Z,55.63
2018-06-17T12:19:34.930Z,53.61
2018-06-17T12:22:38.798Z,54.33
2018-06-17T12:25:42.654Z,53.55
2018-06-17T12:28:46.421Z,52.44
2018-06-17T12:31:50.181Z,50.42
2018-06-17T12:34:53.883Z,49.85
2018-06-17T12:37:57.486Z,51.22
2018-06-17T12:41:01.243Z,53.52
2018-06-17T12:44:05.031Z,51.42
2018-06-17T12:47:08.761Z,52.94
2018-06-17T12:50:12.411Z,53.08
2018-06-17T12:53:16.049Z,52.52
2018-06-17T12:56:19.779Z,52.95
2018-06-17T12:59:23.481Z,52.84
2018-06-17T13:02:27.109Z,52.80
2018-06-17T13:05:30.882Z,52.64
2018-06-17T13:08:34.489Z,52.80
2018-06-17T13:11:38.166Z,53.40
2018-06-17T13:14:41.813Z,54.34
2018-06-17T13:17:45.463Z,52.16
2018-06-17T13:20:49.106Z,51.27
2018-06-17T13:23:52.904Z,52.78
2018-06-17T13:26:56.716Z,52.62
2018-06-17T13:30:00.407Z,51.85
2018-06-17T13:33:04.141Z,52.06
2018-06-17T13:36:07.934Z,55.17
2018-06-17T13:39:11.565Z,54.60
2018-06-17T13:42:15.303Z,53.62
2018-06-17T13:45:19.299Z,53.49
2018-06-17T13:48:22.910Z,52.76
2018-06-17T13:51:26.594Z,54.48
2018-06-17T13:54:30.409Z,53.57
2018-06-17T13:57:34.087Z,53.99
2018-06-17T14:00:37.675Z,54.55
2018-06-17T14:03:41.287Z,55.21
2018-06-17T14:06:44.937Z,56.45
2018-06-17T14:09:48.852Z,55.14
2018-06-17T14:12:52.821Z,55.21
2018-06-17T14:15:56.594Z,56.63
2018-06-17T14:19:00.296Z,56.60
2018-06-17T14:22:03.936Z,57.27
2018-06-17T14:25:07.721Z,55.63
2018-06-17T14:28:11.342Z,56.31
2018-06-17T14:31:15.142Z,53.94
2018-06-17T14:34:18.827Z,52.81
2018-06-17T14:37:22.572Z,53.56
2018-06-17T14:40:26.321Z,53.15
2018-06-17T14:43:35.243Z,53.59
2018-06-17T14:46:43.922Z,53.55
2018-06-17T14:49:52.680Z,54.06
2018-06-17T14:53:01.439Z,53.72
2018-06-17T14:56:05.127Z,52.01
2018-06-17T14:59:08.840Z,53.46
2018-06-17T15:02:12.700Z,53.06
2018-06-17T15:05:16.337Z,53.56
2018-06-17T15:08:20.075Z,51.99
2018-06-17T15:11:23.803Z,51.55
2018-06-17T15:14:27.389Z,52.22
2018-06-17T15:17:30.975Z,50.89
2018-06-17T15:20:34.927Z,51.61
2018-06-17T15:23:38.718Z,51.79
2018-06-17T15:26:42.403Z,51.38
2018-06-17T15:29:46.042Z,49.52
2018-06-17T15:32:54.814Z,51.31
2018-06-17T15:36:03.746Z,51.06
2018-06-17T15:39:13.227Z,50.72
2018-06-17T15:42:17.031Z,52.26
2018-06-17T15:45:20.737Z,51.35
2018-06-17T15:48:24.631Z,53.17
2018-06-17T15:51:28.292Z,51.62
2018-06-17T15:54:31.932Z,52.25
2018-06-17T15:57:35.620Z,50.53
2018-06-17T16:00:39.348Z,50.85
2018-06-17T16:03:43.062Z,50.54
2018-06-17T16:06:46.803Z,50.06
2018-06-17T16:09:50.575Z,50.84
2018-06-17T16:12:59.384Z,51.51
2018-06-17T16:16:08.255Z,52.25
2018-06-17T16:19:16.989Z,51.51
2018-06-17T16:22:20.779Z,52.01
2018-06-17T16:25:24.512Z,52.50
2018-06-17T16:28:28.112Z,52.77
2018-06-17T16:31:31.793Z,52.23
2018-06-17T16:34:35.489Z,51.62
2018-06-17T16:37:39.138Z,51.06
2018-06-17T16:40:42.904Z,50.10
2018-06-17T16:43:46.482Z,49.16
2018-06-17T16:46:53.020Z,49.79
2018-06-17T16:49:56.749Z,48.16
2018-06-17T16:54:06.481Z,47.51
2018-06-17T16:57:15.480Z,46.05
2018-06-17T17:00:21.358Z,47.21
2018-06-17T17:03:24.979Z,47.70
2018-06-17T17:06:28.681Z,49.73
2018-06-17T17:09:32.336Z,50.96
2018-06-17T17:12:35.871Z,51.59
2018-06-17T17:15:39.582Z,52.09
2018-06-17T17:18:43.097Z,52.25
2018-06-17T17:21:46.702Z,52.92
2018-06-17T17:24:50.471Z,54.05
2018-06-17T17:27:54.186Z,53.54
2018-06-17T17:30:57.961Z,53.85
2018-06-17T17:34:06.851Z,55.23
2018-06-17T17:37:15.632Z,55.39
2018-06-17T17:40:24.417Z,54.62
2018-06-17T17:43:28.699Z,55.21
2018-06-17T17:46:37.588Z,55.15
2018-06-17T17:49:41.318Z,53.35
2018-06-17T17:52:45.047Z,54.28
2018-06-17T17:55:48.717Z,53.10
2018-06-17T17:58:52.472Z,54.46
2018-06-17T18:01:56.069Z,54.85
2018-06-17T18:04:59.804Z,55.22
2018-06-17T18:08:03.496Z,54.98
2018-06-17T18:11:07.206Z,54.80
2018-06-17T18:14:10.877Z,55.80
2018-06-17T18:17:14.536Z,54.99
2018-06-17T18:20:18.280Z,54.58
2018-06-17T18:23:22.065Z,55.58
2018-06-17T18:26:30.975Z,55.15
2018-06-17T18:29:39.810Z,55.90
2018-06-17T18:32:48.765Z,56.69
2018-06-17T18:35:57.609Z,56.76
2018-06-17T18:39:01.329Z,57.18
2018-06-17T18:42:05.091Z,57.31
2018-06-17T18:45:08.758Z,57.78
2018-06-17T18:48:12.460Z,58.06
2018-06-17T18:51:16.084Z,58.24
2018-06-17T18:54:19.782Z,58.31
2018-06-17T18:57:23.554Z,58.75
2018-06-17T19:00:27.308Z,58.96
2018-06-17T19:03:30.964Z,59.33
2018-06-17T19:06:34.652Z,59.16
2018-06-17T19:09:43.547Z,60.09
2018-06-17T19:12:52.368Z,60.46
2018-06-17T19:16:01.668Z,60.10
2018-06-17T19:19:05.580Z,61.39
2018-06-17T19:22:09.152Z,60.51
2018-06-17T19:25:12.885Z,60.67
2018-06-17T19:28:16.561Z,61.11
2018-06-17T19:31:20.169Z,61.66
2018-06-17T19:34:23.864Z,62.03
2018-06-17T19:37:27.483Z,62.16
2018-06-17T19:40:31.141Z,62.27
2018-06-17T19:43:34.743Z,61.86
2018-06-17T19:46:38.453Z,62.10
2018-06-17T19:49:47.535Z,62.24
2018-06-17T19:52:56.408Z,62.84
2018-06-17T19:56:05.188Z,62.74
2018-06-17T19:59:14.038Z,62.52
2018-06-17T20:02:18.743Z,62.79
2018-06-17T20:05:23.165Z,62.78
2018-06-17T20:08:27.439Z,62.90
2018-06-17T20:11:32.169Z,62.90
2018-06-17T20:14:36.559Z,62.75
2018-06-17T20:17:40.265Z,63.12
2018-06-17T20:20:44.920Z,63.10
2018-06-17T20:23:48.699Z,63.66
2018-06-17T20:26:53.180Z,63.70
2018-06-17T20:29:57.591Z,63.48
2018-06-17T20:33:08.198Z,63.72
2018-06-17T20:36:18.033Z,64.15
2018-06-17T20:39:26.850Z,64.09
2018-06-17T20:42:36.664Z,64.26
2018-06-17T20:45:41.238Z,64.84
2018-06-17T20:48:45.090Z,64.61
2018-06-17T20:51:49.624Z,64.75
2018-06-17T20:54:54.294Z,65.25
2018-06-17T20:57:58.890Z,65.08
2018-06-17T21:01:03.262Z,65.13
2018-06-17T21:04:08.188Z,65.54
2018-06-17T21:07:14.393Z,65.64
2018-06-17T21:10:19.014Z,65.69
2018-06-17T21:13:26.958Z,65.83
2018-06-17T21:16:30.749Z,65.99
2018-06-17T21:19:39.720Z,66.14
2018-06-17T21:22:49.125Z,66.45
2018-06-17T21:25:58.690Z,66.94
2018-06-17T21:29:03.036Z,67.11
2018-06-17T21:32:06.610Z,67.48
2018-06-17T21:35:11.570Z,67.63
2018-06-17T21:38:15.806Z,67.90
2018-06-17T21:41:21.403Z,70.94
2018-06-17T21:44:25.024Z,72.63
2018-06-17T21:47:28.554Z,74.59
2018-06-17T21:50:32.224Z,75.26
2018-06-17T21:53:35.865Z,76.42
2018-06-17T21:56:39.365Z,77.07
2018-06-17T21:59:43.009Z,77.56
2018-06-17T22:02:46.600Z,77.71
2018-06-17T22:05:50.229Z,78.13
2018-06-17T22:08:59.010Z,78.03
2018-06-17T22:12:07.680Z,77.52
2018-06-17T22:15:16.760Z,76.94
2018-06-17T22:18:20.338Z,77.10
2018-06-17T22:21:23.938Z,77.25
2018-06-17T22:24:27.708Z,77.23
2018-06-17T22:27:31.405Z,77.71
2018-06-17T22:30:34.989Z,77.90
2018-06-17T22:33:38.633Z,77.63
2018-06-17T22:36:42.178Z,77.96
2018-06-17T22:39:45.789Z,78.42
2018-06-17T22:42:49.451Z,78.50
2018-06-17T22:45:52.954Z,78.45
2018-06-17T22:48:56.656Z,78.88
2018-06-17T22:52:00.209Z,79.06
2018-06-17T22:55:03.868Z,78.74
2018-06-17T22:58:12.786Z,78.97
2018-06-17T23:01:23.100Z,79.26
2018-06-17T23:04:32.169Z,79.83
2018-06-17T23:07:40.969Z,79.83
2018-06-17T23:10:44.576Z,79.75
2018-06-17T23:13:48.107Z,79.96
2018-06-17T23:16:51.675Z,80.45
2018-06-17T23:19:55.250Z,80.57
2018-06-17T23:22:58.829Z,80.91
2018-06-17T23:26:02.486Z,81.11
2018-06-17T23:29:06.105Z,80.87
2018-06-17T23:32:09.651Z,81.16
2018-06-17T23:35:13.321Z,81.14
2018-06-17T23:38:16.845Z,81.12
2018-06-17T23:41:20.422Z,80.99
2018-06-17T23:44:23.932Z,79.67
2018-06-17T23:47:32.771Z,79.74
2018-06-17T23:50:41.545Z,79.80
2018-06-17T23:53:50.359Z,80.05
2018-06-17T23:56:54.085Z,79.93
2018-06-17T23:59:57.584Z,80.09
